Weather at Aeropuerto Internacional de Cozumel

Public forecast

Using degrees Celsius for public forecast. Weather courtesy of forecast.io.

Current aviation weather report (METAR) for Aeropuerto Internacional de Cozumel

2024/05/28 21:42 (retrieved 1 hour ago)

MMCZ 282142Z 14011KT 8SM SCT015TCU 33/24 A2994 RMK 8/200 SC

Aviation forecast (TAF) for Aeropuerto Internacional de Cozumel

2024/05/28 18:19 (retrieved 4 hours ago)

TAF MMCZ 281712Z 2818/2918 12015KT P6SM SCT015 BECMG 2903/2904 10008KT FM290800 10015KT P6SM SCT015 BECMG 2917/2918 09010KT